createdAt,value
2019-03-23T00:00:16.052Z,55.95
2019-03-23T00:02:44.812Z,54.15
2019-03-23T00:05:14.944Z,59.85
2019-03-23T00:07:44.247Z,54.73
2019-03-23T00:10:12.764Z,55.17
2019-03-23T00:12:41.500Z,58.90
2019-03-23T00:15:12.323Z,57.48
2019-03-23T00:17:40.842Z,55.73
2019-03-23T00:20:09.885Z,57.43
2019-03-23T00:22:38.451Z,54.85
2019-03-23T00:25:07.337Z,56.00
2019-03-23T00:27:36.803Z,57.48
2019-03-23T00:30:08.882Z,55.70
2019-03-23T00:32:38.616Z,54.90
2019-03-23T00:35:07.434Z,52.78
2019-03-23T00:37:36.065Z,51.05
2019-03-23T00:40:07.701Z,53.87
2019-03-23T00:42:36.960Z,52.08
2019-03-23T00:45:07.696Z,52.78
2019-03-23T00:47:36.439Z,49.65
2019-03-23T00:50:06.116Z,50.95
2019-03-23T00:52:34.604Z,50.52
2019-03-23T00:55:05.196Z,51.35
2019-03-23T00:57:33.443Z,50.25
2019-03-23T01:00:02.605Z,52.35
2019-03-23T01:02:31.347Z,48.87
2019-03-23T01:05:02.613Z,50.70
2019-03-23T01:07:31.444Z,49.60
2019-03-23T01:10:00.720Z,47.23
2019-03-23T01:12:29.599Z,46.70
2019-03-23T01:14:59.835Z,47.53
2019-03-23T01:17:28.452Z,46.15
2019-03-23T01:19:57.801Z,41.75
2019-03-23T01:22:26.596Z,45.83
2019-03-23T01:24:55.381Z,48.13
2019-03-23T01:27:24.119Z,44.50
2019-03-23T01:29:53.513Z,44.73
2019-03-23T01:32:22.113Z,45.95
2019-03-23T01:34:50.959Z,44.15
2019-03-23T01:37:21.461Z,44.67
2019-03-23T01:39:50.089Z,45.78
2019-03-23T01:42:18.837Z,45.12
2019-03-23T01:44:47.303Z,47.45
2019-03-23T01:47:15.791Z,46.25
2019-03-23T01:49:46.050Z,44.20
2019-03-23T01:52:14.805Z,45.92
2019-03-23T01:54:43.589Z,45.88
2019-03-23T01:57:12.362Z,45.43
2019-03-23T01:59:41.919Z,47.15
2019-03-23T02:02:10.776Z,42.33
2019-03-23T02:04:39.665Z,45.28
2019-03-23T02:07:16.117Z,46.13
2019-03-23T02:09:44.873Z,43.80
2019-03-23T02:12:14.277Z,46.18
2019-03-23T02:14:42.803Z,45.48
2019-03-23T02:17:11.550Z,45.67
2019-03-23T02:19:41.797Z,48.33
2019-03-23T02:22:10.293Z,42.30
2019-03-23T02:24:39.096Z,44.45
2019-03-23T02:27:07.844Z,46.75
2019-03-23T02:29:36.607Z,43.08
2019-03-23T02:32:05.431Z,44.73
2019-03-23T02:34:34.206Z,45.35
2019-03-23T02:37:03.156Z,45.45
2019-03-23T02:39:31.939Z,44.93
2019-03-23T02:42:02.324Z,47.98
2019-03-23T02:44:31.215Z,46.02
2019-03-23T02:47:02.543Z,44.67
2019-03-23T02:49:31.052Z,46.75
2019-03-23T02:51:59.878Z,45.23
2019-03-23T02:54:30.055Z,47.17
2019-03-23T02:57:00.085Z,44.70
2019-03-23T02:59:28.701Z,47.03
2019-03-23T03:01:59.245Z,49.03
2019-03-23T03:04:28.065Z,45.20
2019-03-23T03:06:57.919Z,45.65
2019-03-23T03:09:26.688Z,45.10
2019-03-23T03:11:55.473Z,48.60
2019-03-23T03:14:23.940Z,47.45
2019-03-23T03:16:55.028Z,49.67
2019-03-23T03:19:25.061Z,44.30
2019-03-23T03:21:53.864Z,46.00
2019-03-23T03:24:22.584Z,46.35
2019-03-23T03:26:51.177Z,50.23
2019-03-23T03:29:19.631Z,47.88
2019-03-23T03:31:48.199Z,48.30
2019-03-23T03:34:17.137Z,47.85
2019-03-23T03:36:45.702Z,49.70
2019-03-23T03:39:14.576Z,48.08
2019-03-23T03:41:43.752Z,48.55
2019-03-23T03:44:15.345Z,50.05
2019-03-23T03:46:43.952Z,47.58
2019-03-23T03:49:13.180Z,47.70
2019-03-23T03:51:42.073Z,46.85
2019-03-23T03:54:10.920Z,45.25
2019-03-23T03:56:39.377Z,45.28
2019-03-23T03:59:08.146Z,44.15
2019-03-23T04:01:36.811Z,46.92
2019-03-23T04:04:05.589Z,48.90
2019-03-23T04:06:34.048Z,45.20
2019-03-23T04:09:05.298Z,46.88
2019-03-23T04:11:33.749Z,45.43
2019-03-23T04:14:02.509Z,45.90
2019-03-23T04:16:31.397Z,47.00
2019-03-23T04:18:59.892Z,47.05
2019-03-23T04:21:28.633Z,46.58
2019-03-23T04:23:59.002Z,47.80
2019-03-23T04:26:30.564Z,44.85
2019-03-23T04:29:00.211Z,47.17
2019-03-23T04:31:29.891Z,44.70
2019-03-23T04:33:58.438Z,46.85
2019-03-23T04:36:26.965Z,50.78
2019-03-23T04:38:56.361Z,47.62
2019-03-23T04:41:24.932Z,45.25
2019-03-23T04:43:53.510Z,44.50
2019-03-23T04:46:22.037Z,48.25
2019-03-23T04:48:50.507Z,48.35
2019-03-23T04:51:22.796Z,51.18
2019-03-23T04:53:51.585Z,49.08
2019-03-23T04:56:20.372Z,48.48
2019-03-23T04:58:48.886Z,50.45
2019-03-23T05:01:17.726Z,51.13
2019-03-23T05:03:46.537Z,48.48
2019-03-23T05:06:16.741Z,50.52
2019-03-23T05:08:45.519Z,53.48
2019-03-23T05:11:14.345Z,50.58
2019-03-23T05:13:44.053Z,51.77
2019-03-23T05:16:12.807Z,52.78
2019-03-23T05:18:41.647Z,54.10
2019-03-23T05:21:10.825Z,48.05
2019-03-23T05:23:40.605Z,54.00
2019-03-23T05:26:11.378Z,50.15
2019-03-23T05:28:40.006Z,53.33
2019-03-23T05:31:08.493Z,52.58
2019-03-23T05:33:37.035Z,50.67
2019-03-23T05:36:05.843Z,50.00
2019-03-23T05:38:43.796Z,53.73
2019-03-23T05:41:04.983Z,50.60
2019-03-23T05:43:33.837Z,47.13
2019-03-23T05:46:02.886Z,49.40
2019-03-23T05:48:31.468Z,49.90
2019-03-23T05:51:01.473Z,52.88
2019-03-23T05:53:31.323Z,51.77
2019-03-23T05:56:00.111Z,46.92
2019-03-23T05:58:28.655Z,53.45
2019-03-23T06:00:57.383Z,52.88
2019-03-23T06:03:26.141Z,54.15
2019-03-23T06:05:54.937Z,46.55
2019-03-23T06:08:25.899Z,52.17
2019-03-23T06:10:58.024Z,47.60
2019-03-23T06:13:26.811Z,53.95
2019-03-23T06:15:56.345Z,43.60
2019-03-23T06:18:24.875Z,51.08
2019-03-23T06:20:53.512Z,50.88
2019-03-23T06:23:22.395Z,52.93
2019-03-23T06:25:51.378Z,55.17
2019-03-23T06:28:22.365Z,53.58
2019-03-23T06:30:50.869Z,52.67
2019-03-23T06:33:21.691Z,54.70
2019-03-23T06:35:51.183Z,52.88
2019-03-23T06:38:21.549Z,52.40
2019-03-23T06:40:50.441Z,50.83
2019-03-23T06:43:19.174Z,49.30
2019-03-23T06:45:47.718Z,54.88
2019-03-23T06:48:16.438Z,53.40
2019-03-23T06:50:45.185Z,52.73
2019-03-23T06:53:13.937Z,53.50
2019-03-23T06:55:42.393Z,54.40
2019-03-23T06:58:10.841Z,47.78
2019-03-23T07:00:39.563Z,53.90
2019-03-23T07:03:08.019Z,52.40
2019-03-23T07:05:36.467Z,54.08
2019-03-23T07:08:04.999Z,51.30
2019-03-23T07:10:33.723Z,52.15
2019-03-23T07:13:02.655Z,50.63
2019-03-23T07:15:32.763Z,52.50
2019-03-23T07:18:03.051Z,53.90
2019-03-23T07:20:34.584Z,50.20
2019-03-23T07:23:03.419Z,51.50
2019-03-23T07:25:31.948Z,53.13
2019-03-23T07:28:03.246Z,52.85
2019-03-23T07:30:33.301Z,50.30
2019-03-23T07:33:01.794Z,54.03
2019-03-23T07:35:30.326Z,50.88
2019-03-23T07:37:59.247Z,52.20
2019-03-23T07:40:28.005Z,53.92
2019-03-23T07:42:58.911Z,53.63
2019-03-23T07:45:27.691Z,52.00
2019-03-23T07:47:56.401Z,51.35
2019-03-23T07:50:24.864Z,52.13
2019-03-23T07:52:53.351Z,51.83
2019-03-23T07:55:23.347Z,50.70
2019-03-23T07:57:52.102Z,51.85
2019-03-23T08:00:21.774Z,54.27
2019-03-23T08:02:50.291Z,54.33
2019-03-23T08:05:18.820Z,52.50
2019-03-23T08:07:47.341Z,50.67
2019-03-23T08:10:30.653Z,53.08
2019-03-23T08:12:59.639Z,51.00
2019-03-23T08:15:28.594Z,52.03
2019-03-23T08:17:58.709Z,51.00
2019-03-23T08:20:27.445Z,51.48
2019-03-23T08:22:56.168Z,53.02
2019-03-23T08:25:24.705Z,50.23
2019-03-23T08:27:55.898Z,51.30
2019-03-23T08:30:24.740Z,52.08
2019-03-23T08:32:53.238Z,51.53
2019-03-23T08:35:21.711Z,52.73
2019-03-23T08:37:50.457Z,51.60
2019-03-23T08:40:21.835Z,48.42
2019-03-23T08:42:50.594Z,49.77
2019-03-23T08:45:19.299Z,48.15
2019-03-23T08:47:48.034Z,48.73
2019-03-23T08:50:16.764Z,52.58
2019-03-23T08:52:45.248Z,50.88
2019-03-23T08:55:13.711Z,50.58
2019-03-23T08:57:42.280Z,49.18
2019-03-23T09:00:11.332Z,52.73
2019-03-23T09:02:40.588Z,49.58
2019-03-23T09:05:09.157Z,48.95
2019-03-23T09:07:37.961Z,48.05
2019-03-23T09:10:07.587Z,48.40
2019-03-23T09:12:36.545Z,46.90
2019-03-23T09:15:11.076Z,47.98
2019-03-23T09:17:39.798Z,46.98
2019-03-23T09:20:10.368Z,47.50
2019-03-23T09:22:38.833Z,46.20
2019-03-23T09:25:07.632Z,46.58
2019-03-23T09:27:37.872Z,46.98
2019-03-23T09:30:11.992Z,46.02
2019-03-23T09:32:40.684Z,44.98
2019-03-23T09:35:09.389Z,45.48
2019-03-23T09:37:38.494Z,44.25
2019-03-23T09:40:10.946Z,44.50
2019-03-23T09:42:41.258Z,46.18
2019-03-23T09:45:10.119Z,45.17
2019-03-23T09:47:40.369Z,43.87
2019-03-23T09:50:13.651Z,45.80
2019-03-23T09:52:43.685Z,43.85
2019-03-23T09:55:12.447Z,42.45
2019-03-23T09:57:40.912Z,43.87
2019-03-23T10:00:12.226Z,43.13
2019-03-23T10:02:41.909Z,44.63
2019-03-23T10:05:10.785Z,42.95
2019-03-23T10:07:39.535Z,43.38
2019-03-23T10:10:20.951Z,43.55
2019-03-23T10:12:41.366Z,43.95
2019-03-23T10:15:10.417Z,42.90
2019-03-23T10:17:39.315Z,41.02
2019-03-23T10:20:09.865Z,40.63
2019-03-23T10:22:39.345Z,39.88
2019-03-23T10:25:08.229Z,41.53
2019-03-23T10:27:36.945Z,39.73
2019-03-23T10:30:07.739Z,41.00
2019-03-23T10:32:37.759Z,38.55
2019-03-23T10:35:08.637Z,40.90
2019-03-23T10:37:37.670Z,40.17
2019-03-23T10:40:10.923Z,41.20
2019-03-23T10:42:39.697Z,42.80
2019-03-23T10:45:09.605Z,41.98
2019-03-23T10:47:38.480Z,41.92
2019-03-23T10:50:07.677Z,42.03
2019-03-23T10:52:36.175Z,42.30
2019-03-23T10:55:06.599Z,41.23
2019-03-23T10:57:35.354Z,39.83
2019-03-23T11:00:10.413Z,40.75
2019-03-23T11:02:40.235Z,39.83
2019-03-23T11:05:09.721Z,40.38
2019-03-23T11:07:38.337Z,40.85
2019-03-23T11:10:09.671Z,39.42
2019-03-23T11:12:38.575Z,40.25
2019-03-23T11:15:09.243Z,39.58
2019-03-23T11:17:38.079Z,38.90
2019-03-23T11:20:10.839Z,41.20
2019-03-23T11:22:39.622Z,40.88
2019-03-23T11:25:09.163Z,40.43
2019-03-23T11:27:38.050Z,39.60
2019-03-23T11:30:11.624Z,39.10
2019-03-23T11:32:40.405Z,37.40
2019-03-23T11:35:09.405Z,38.08
2019-03-23T11:37:38.532Z,38.55
2019-03-23T11:40:14.322Z,41.18
2019-03-23T11:42:49.755Z,38.88
2019-03-23T11:45:13.880Z,36.98
2019-03-23T11:47:43.773Z,38.10
2019-03-23T11:50:12.822Z,38.65
2019-03-23T11:52:41.636Z,37.35
2019-03-23T11:55:10.691Z,36.73
2019-03-23T11:57:39.252Z,37.10
2019-03-23T12:00:13.690Z,38.53
2019-03-23T12:02:45.186Z,38.92
2019-03-23T12:05:14.928Z,38.58
2019-03-23T12:07:43.750Z,38.58
2019-03-23T12:10:13.544Z,41.88
2019-03-23T12:12:44.455Z,36.35
2019-03-23T12:15:14.077Z,39.90
2019-03-23T12:17:43.472Z,37.38
2019-03-23T12:20:13.735Z,35.63
2019-03-23T12:22:44.125Z,36.80
2019-03-23T12:25:13.746Z,36.58
2019-03-23T12:27:45.378Z,34.63
2019-03-23T12:30:16.845Z,35.30
2019-03-23T12:32:45.711Z,34.13
2019-03-23T12:35:14.274Z,34.23
2019-03-23T12:37:43.085Z,35.03
2019-03-23T12:40:12.158Z,34.83
2019-03-23T12:42:40.998Z,36.42
2019-03-23T12:45:11.679Z,34.83
2019-03-23T12:47:40.619Z,35.88
2019-03-23T12:50:10.727Z,35.92
2019-03-23T12:52:39.605Z,34.58
2019-03-23T12:55:08.441Z,33.90
2019-03-23T12:57:36.992Z,32.60
2019-03-23T13:00:14.585Z,33.05
2019-03-23T13:02:43.115Z,33.42
2019-03-23T13:05:13.496Z,34.23
2019-03-23T13:07:41.970Z,35.35
2019-03-23T13:10:12.503Z,33.38
2019-03-23T13:12:41.400Z,32.98
2019-03-23T13:15:12.571Z,32.93
2019-03-23T13:17:41.309Z,34.15
2019-03-23T13:20:11.403Z,35.33
2019-03-23T13:22:40.235Z,35.63
2019-03-23T13:25:09.518Z,34.43
2019-03-23T13:27:37.969Z,31.73
2019-03-23T13:30:13.022Z,30.88
2019-03-23T13:32:41.822Z,30.15
2019-03-23T13:35:13.398Z,29.95
2019-03-23T13:37:41.947Z,31.52
2019-03-23T13:40:11.972Z,31.33
2019-03-23T13:42:40.842Z,35.30
2019-03-23T13:45:10.405Z,33.70
2019-03-23T13:47:40.128Z,34.65
2019-03-23T13:50:09.980Z,31.45
2019-03-23T13:52:38.523Z,30.48
2019-03-23T13:55:07.766Z,32.00
2019-03-23T13:57:36.300Z,28.52
2019-03-23T14:00:08.368Z,27.93
2019-03-23T14:02:37.218Z,25.32
2019-03-23T14:05:12.223Z,25.60
2019-03-23T14:07:37.824Z,26.15
2019-03-23T14:10:07.037Z,27.90
2019-03-23T14:12:35.904Z,26.85
2019-03-23T14:15:07.180Z,26.93
2019-03-23T14:17:36.024Z,28.27
2019-03-23T14:20:06.145Z,28.17
2019-03-23T14:22:34.869Z,26.68
2019-03-23T14:25:06.355Z,29.85
2019-03-23T14:27:35.105Z,30.25
2019-03-23T14:30:05.983Z,28.70
2019-03-23T14:32:34.918Z,29.12
2019-03-23T14:35:03.901Z,29.80
2019-03-23T14:37:33.921Z,29.35
2019-03-23T14:40:02.464Z,26.80
2019-03-23T14:42:31.122Z,27.05
2019-03-23T14:44:59.982Z,27.58
2019-03-23T14:47:28.573Z,26.48
2019-03-23T14:49:57.281Z,25.43
2019-03-23T14:52:25.999Z,25.45
2019-03-23T14:54:54.828Z,25.92
2019-03-23T14:57:23.546Z,26.17
2019-03-23T14:59:52.021Z,27.00
2019-03-23T15:02:20.663Z,23.83
2019-03-23T15:04:49.382Z,24.45
2019-03-23T15:07:18.156Z,22.65
2019-03-23T15:09:47.353Z,24.55
2019-03-23T15:12:15.814Z,22.52
2019-03-23T15:14:44.421Z,22.60
2019-03-23T15:17:12.902Z,20.55
2019-03-23T15:19:43.896Z,20.15
2019-03-23T15:22:12.705Z,21.23
2019-03-23T15:24:42.535Z,22.13
2019-03-23T15:27:11.260Z,21.55
2019-03-23T15:29:40.099Z,21.50
2019-03-23T15:32:08.564Z,21.33
2019-03-23T15:34:37.011Z,26.60
2019-03-23T15:37:05.634Z,33.67
2019-03-23T15:39:35.687Z,35.90
2019-03-23T15:42:05.695Z,35.35
2019-03-23T15:44:34.184Z,35.75
2019-03-23T15:47:03.685Z,35.33
2019-03-23T15:49:32.188Z,33.75
2019-03-23T15:52:02.565Z,32.17
2019-03-23T15:54:31.025Z,31.48
2019-03-23T15:56:59.829Z,31.27
2019-03-23T15:59:28.630Z,32.03
2019-03-23T16:01:58.785Z,27.90
2019-03-23T16:04:27.282Z,31.02
2019-03-23T16:06:57.896Z,31.82
2019-03-23T16:09:26.353Z,30.48
2019-03-23T16:11:55.129Z,29.32
2019-03-23T16:14:23.911Z,29.70
2019-03-23T16:16:54.688Z,30.25
2019-03-23T16:19:23.195Z,29.52
2019-03-23T16:21:52.055Z,30.08
2019-03-23T16:24:20.888Z,31.45
2019-03-23T16:26:49.770Z,31.12
2019-03-23T16:29:18.281Z,31.40
2019-03-23T16:31:46.740Z,29.37
2019-03-23T16:34:15.648Z,28.85
2019-03-23T16:36:46.900Z,29.70
2019-03-23T16:39:15.619Z,30.10
2019-03-23T16:41:44.482Z,28.83
2019-03-23T16:44:20.845Z,30.32
2019-03-23T16:46:49.426Z,28.45
2019-03-23T16:49:17.890Z,27.95
2019-03-23T16:51:46.349Z,26.77
2019-03-23T16:54:17.814Z,27.17
2019-03-23T16:57:28.700Z,29.72
2019-03-23T16:59:57.506Z,26.65
2019-03-23T17:02:26.437Z,25.62
2019-03-23T17:04:55.737Z,25.17
2019-03-23T17:07:25.714Z,23.50
2019-03-23T17:09:54.552Z,25.80
2019-03-23T17:12:24.558Z,21.27
2019-03-23T17:14:53.107Z,24.27
2019-03-23T17:17:21.954Z,16.80
2019-03-23T17:19:50.718Z,14.28
2019-03-23T17:22:19.193Z,13.10
2019-03-23T17:24:47.644Z,12.40
2019-03-23T17:27:16.363Z,9.68
2019-03-23T17:29:45.088Z,8.85
2019-03-23T17:32:14.678Z,8.45
2019-03-23T17:34:43.155Z,7.05
2019-03-23T17:37:16.420Z,6.65
2019-03-23T17:39:45.236Z,8.40
2019-03-23T17:42:13.728Z,6.10
2019-03-23T17:44:46.162Z,5.95
2019-03-23T17:47:15.004Z,6.08
2019-03-23T17:49:43.821Z,5.28
2019-03-23T17:52:13.708Z,5.45
2019-03-23T17:54:42.242Z,7.05
2019-03-23T17:57:10.720Z,5.22
2019-03-23T17:59:39.455Z,5.28
2019-03-23T18:02:07.987Z,3.95
2019-03-23T18:04:36.824Z,5.97
2019-03-23T18:07:05.619Z,4.37
2019-03-23T18:09:34.371Z,5.70
2019-03-23T18:12:03.106Z,4.72
2019-03-23T18:14:31.913Z,7.25
2019-03-23T18:17:00.384Z,3.52
2019-03-23T18:19:30.632Z,3.67
2019-03-23T18:22:00.368Z,4.37
2019-03-23T18:24:29.089Z,4.95
2019-03-23T18:26:57.583Z,5.40
2019-03-23T18:29:27.560Z,4.45
2019-03-23T18:31:56.022Z,4.87
2019-03-23T18:34:24.889Z,5.50
2019-03-23T18:36:55.585Z,4.53
2019-03-23T18:39:24.106Z,3.30
2019-03-23T18:41:55.739Z,4.90
2019-03-23T18:44:24.789Z,3.05
2019-03-23T18:46:58.132Z,3.20
2019-03-23T18:49:26.622Z,3.87
2019-03-23T18:51:56.851Z,3.58
2019-03-23T18:54:25.697Z,5.58
2019-03-23T18:56:54.425Z,4.03
2019-03-23T18:59:27.232Z,5.45
2019-03-23T19:01:55.944Z,3.47
2019-03-23T19:04:25.875Z,4.75
2019-03-23T19:06:54.353Z,5.47
2019-03-23T19:09:22.905Z,4.28
2019-03-23T19:11:51.459Z,3.15
2019-03-23T19:14:19.908Z,2.98
2019-03-23T19:16:48.378Z,3.30
2019-03-23T19:19:19.191Z,4.62
2019-03-23T19:21:50.759Z,4.60
2019-03-23T19:24:19.514Z,4.08
2019-03-23T19:26:47.969Z,3.75
2019-03-23T19:29:17.531Z,4.87
2019-03-23T19:31:48.105Z,4.80
2019-03-23T19:34:16.596Z,5.10
2019-03-23T19:36:45.371Z,6.35
2019-03-23T19:39:14.160Z,4.83
2019-03-23T19:41:42.615Z,5.28
2019-03-23T19:44:13.481Z,5.45
2019-03-23T19:46:42.051Z,5.55
2019-03-23T19:49:10.815Z,5.22
2019-03-23T19:51:39.349Z,7.35
2019-03-23T19:54:09.161Z,7.05
2019-03-23T19:56:39.486Z,4.70
2019-03-23T19:59:07.938Z,4.40
2019-03-23T20:01:36.423Z,4.53
2019-03-23T20:04:05.129Z,4.30
2019-03-23T20:06:35.309Z,4.90
2019-03-23T20:09:05.345Z,4.85
2019-03-23T20:11:33.901Z,5.40
2019-03-23T20:14:02.722Z,4.53
2019-03-23T20:16:31.282Z,4.15
2019-03-23T20:18:59.744Z,4.00
2019-03-23T20:21:28.549Z,5.03
2019-03-23T20:23:58.653Z,4.20
2019-03-23T20:26:30.442Z,4.50
2019-03-23T20:28:59.323Z,4.58
2019-03-23T20:31:27.898Z,5.15
2019-03-23T20:33:57.255Z,3.75
2019-03-23T20:36:25.707Z,4.70
2019-03-23T20:38:54.181Z,3.98
2019-03-23T20:41:22.641Z,6.33
2019-03-23T20:43:51.180Z,5.95
2019-03-23T20:46:19.721Z,4.87
2019-03-23T20:48:48.235Z,4.30
2019-03-23T20:51:17.225Z,4.42
2019-03-23T20:53:46.077Z,4.83
2019-03-23T20:56:14.865Z,3.25
2019-03-23T20:58:43.589Z,4.00
2019-03-23T21:01:12.927Z,3.52
2019-03-23T21:03:42.418Z,3.22
2019-03-23T21:06:13.779Z,3.47
2019-03-23T21:08:42.513Z,3.83
2019-03-23T21:11:10.961Z,3.70
2019-03-23T21:13:39.425Z,4.05
2019-03-23T21:16:08.927Z,4.58
2019-03-23T21:18:38.569Z,4.47
2019-03-23T21:21:09.417Z,3.40
2019-03-23T21:23:38.992Z,5.17
2019-03-23T21:26:07.584Z,4.53
2019-03-23T21:28:36.370Z,4.37
2019-03-23T21:31:07.385Z,4.40
2019-03-23T21:33:38.940Z,3.70
2019-03-23T21:36:07.388Z,4.60
2019-03-23T21:38:35.928Z,4.37
2019-03-23T21:41:04.932Z,4.25
2019-03-23T21:43:33.669Z,4.20
2019-03-23T21:46:02.268Z,4.67
2019-03-23T21:48:30.806Z,3.62
2019-03-23T21:51:00.383Z,4.12
2019-03-23T21:53:29.226Z,4.00
2019-03-23T21:55:58.124Z,3.98
2019-03-23T21:58:26.868Z,3.98
2019-03-23T22:00:55.668Z,4.30
2019-03-23T22:03:24.499Z,4.87
2019-03-23T22:05:53.264Z,4.40
2019-03-23T22:08:21.787Z,5.30
2019-03-23T22:10:54.611Z,4.37
2019-03-23T22:13:23.414Z,5.22
2019-03-23T22:15:52.202Z,4.25
2019-03-23T22:18:20.659Z,4.15
2019-03-23T22:20:49.390Z,4.00
2019-03-23T22:23:18.272Z,4.35
2019-03-23T22:25:46.724Z,4.10
2019-03-23T22:28:15.426Z,4.17
2019-03-23T22:30:45.434Z,4.15
2019-03-23T22:33:14.248Z,5.60
2019-03-23T22:35:43.005Z,4.87
2019-03-23T22:38:15.614Z,3.83
2019-03-23T22:40:44.476Z,4.45
2019-03-23T22:43:15.031Z,4.03
2019-03-23T22:45:43.828Z,5.53
2019-03-23T22:48:12.365Z,3.70
2019-03-23T22:50:43.018Z,4.12
2019-03-23T22:53:13.868Z,3.62
2019-03-23T22:55:45.142Z,5.75
2019-03-23T22:58:13.940Z,4.58
2019-03-23T23:00:44.422Z,4.45
2019-03-23T23:03:14.796Z,4.15
2019-03-23T23:05:46.384Z,3.55
2019-03-23T23:08:15.360Z,4.58
2019-03-23T23:10:43.820Z,3.62
2019-03-23T23:13:13.141Z,4.65
2019-03-23T23:15:41.998Z,4.45
2019-03-23T23:18:10.455Z,5.17
2019-03-23T23:20:39.248Z,5.25
2019-03-23T23:23:08.073Z,4.95
2019-03-23T23:25:36.809Z,4.70
2019-03-23T23:28:05.362Z,5.12
2019-03-23T23:30:35.576Z,5.30
2019-03-23T23:33:04.066Z,5.17
2019-03-23T23:35:39.911Z,4.75
2019-03-23T23:38:09.610Z,4.25
2019-03-23T23:40:38.141Z,5.35
2019-03-23T23:43:08.551Z,4.50
2019-03-23T23:45:38.148Z,4.67
2019-03-23T23:48:06.682Z,4.72
2019-03-23T23:50:35.123Z,4.62
2019-03-23T23:53:03.954Z,5.03
2019-03-23T23:55:32.481Z,3.90
2019-03-23T23:58:01.270Z,4.40
